sensor_id;sensor_type;location;lat;lon;timestamp;pressure;altitude;pressure_sealevel;temperature;humidity
31717;BME280;18301;51.076;17.046;2023-07-29T00:02:17;99500.09;;;19.43;86.74
31717;BME280;18301;51.076;17.046;2023-07-29T00:07:19;99491.41;;;19.39;86.72
31717;BME280;18301;51.076;17.046;2023-07-29T00:12:20;99491.41;;;19.39;87.02
31717;BME280;18301;51.076;17.046;2023-07-29T00:17:22;99497.53;;;19.41;86.75
31717;BME280;18301;51.076;17.046;2023-07-29T00:22:23;99508.09;;;19.44;86.75
31717;BME280;18301;51.076;17.046;2023-07-29T00:27:25;99504.63;;;19.36;86.79
31717;BME280;18301;51.076;17.046;2023-07-29T00:32:29;99500.38;;;19.33;87.14
31717;BME280;18301;51.076;17.046;2023-07-29T00:37:30;99502.09;;;19.34;87.02
31717;BME280;18301;51.076;17.046;2023-07-29T00:42:32;99501.81;;;19.29;87.09
31717;BME280;18301;51.076;17.046;2023-07-29T00:47:34;99507.00;;;19.24;87.03
31717;BME280;18301;51.076;17.046;2023-07-29T00:52:35;99508.03;;;19.23;87.29
31717;BME280;18301;51.076;17.046;2023-07-29T00:57:37;99502.56;;;19.23;87.41
31717;BME280;18301;51.076;17.046;2023-07-29T01:02:39;99496.94;;;19.24;87.44
31717;BME280;18301;51.076;17.046;2023-07-29T01:18:08;99501.56;;;19.09;87.85
31717;BME280;18301;51.076;17.046;2023-07-29T01:23:09;99492.88;;;19.05;87.97
31717;BME280;18301;51.076;17.046;2023-07-29T01:28:11;99499.78;;;19.01;88.12
31717;BME280;18301;51.076;17.046;2023-07-29T01:33:25;99498.63;;;18.96;88.45
31717;BME280;18301;51.076;17.046;2023-07-29T01:38:33;99499.88;;;18.93;88.65
31717;BME280;18301;51.076;17.046;2023-07-29T01:43:37;99494.97;;;18.89;88.45
31717;BME280;18301;51.076;17.046;2023-07-29T01:48:45;99503.94;;;18.82;88.88
31717;BME280;18301;51.076;17.046;2023-07-29T01:53:47;99510.88;;;18.70;89.12
31717;BME280;18301;51.076;17.046;2023-07-29T01:58:48;99504.94;;;18.67;89.66
31717;BME280;18301;51.076;17.046;2023-07-29T02:03:50;99513.22;;;18.58;89.45
31717;BME280;18301;51.076;17.046;2023-07-29T02:08:56;99506.81;;;18.51;90.45
31717;BME280;18301;51.076;17.046;2023-07-29T02:13:57;99506.34;;;18.48;90.59
31717;BME280;18301;51.076;17.046;2023-07-29T02:18:59;99504.16;;;18.43;90.46
31717;BME280;18301;51.076;17.046;2023-07-29T02:24:01;99497.00;;;18.42;90.85
31717;BME280;18301;51.076;17.046;2023-07-29T02:29:02;99495.94;;;18.43;90.64
31717;BME280;18301;51.076;17.046;2023-07-29T02:34:04;99498.22;;;18.39;90.55
31717;BME280;18301;51.076;17.046;2023-07-29T02:39:05;99492.34;;;18.28;90.89
31717;BME280;18301;51.076;17.046;2023-07-29T02:44:07;99494.97;;;18.21;91.11
31717;BME280;18301;51.076;17.046;2023-07-29T02:49:09;99493.66;;;18.17;91.14
31717;BME280;18301;51.076;17.046;2023-07-29T02:54:10;99509.25;;;18.08;91.89
31717;BME280;18301;51.076;17.046;2023-07-29T02:59:13;99499.97;;;17.94;92.08
31717;BME280;18301;51.076;17.046;2023-07-29T03:04:15;99507.97;;;17.96;92.32
31717;BME280;18301;51.076;17.046;2023-07-29T03:09:16;99510.41;;;17.91;92.88
31717;BME280;18301;51.076;17.046;2023-07-29T03:14:18;99507.25;;;17.79;93.39
31717;BME280;18301;51.076;17.046;2023-07-29T03:19:19;99518.16;;;17.79;93.76
31717;BME280;18301;51.076;17.046;2023-07-29T03:24:21;99516.06;;;17.89;93.73
31717;BME280;18301;51.076;17.046;2023-07-29T03:29:22;99516.47;;;18.01;93.65
31717;BME280;18301;51.076;17.046;2023-07-29T03:34:23;99515.38;;;18.10;93.39
31717;BME280;18301;51.076;17.046;2023-07-29T03:39:25;99517.81;;;18.05;93.20
31717;BME280;18301;51.076;17.046;2023-07-29T03:44:26;99516.97;;;18.05;93.44
31717;BME280;18301;51.076;17.046;2023-07-29T03:49:28;99516.34;;;18.17;93.33
31717;BME280;18301;51.076;17.046;2023-07-29T03:54:29;99516.91;;;18.28;93.16
31717;BME280;18301;51.076;17.046;2023-07-29T03:59:31;99526.94;;;18.35;92.79
31717;BME280;18301;51.076;17.046;2023-07-29T04:04:32;99523.63;;;18.40;92.65
31717;BME280;18301;51.076;17.046;2023-07-29T04:09:34;99531.47;;;18.43;92.34
31717;BME280;18301;51.076;17.046;2023-07-29T04:14:36;99532.59;;;18.49;92.77
31717;BME280;18301;51.076;17.046;2023-07-29T04:19:37;99535.44;;;18.55;92.64
31717;BME280;18301;51.076;17.046;2023-07-29T04:24:39;99542.38;;;18.43;94.21
31717;BME280;18301;51.076;17.046;2023-07-29T04:29:40;99539.66;;;18.43;93.19
31717;BME280;18301;51.076;17.046;2023-07-29T04:34:42;99531.19;;;18.53;92.93
31717;BME280;18301;51.076;17.046;2023-07-29T04:39:43;99535.25;;;18.72;92.43
31717;BME280;18301;51.076;17.046;2023-07-29T04:44:44;99533.94;;;18.68;92.14
31717;BME280;18301;51.076;17.046;2023-07-29T04:49:46;99537.34;;;18.70;91.91
31717;BME280;18301;51.076;17.046;2023-07-29T04:54:47;99535.97;;;18.74;91.89
31717;BME280;18301;51.076;17.046;2023-07-29T04:59:50;99529.47;;;19.04;91.69
31717;BME280;18301;51.076;17.046;2023-07-29T05:04:52;99528.41;;;19.35;90.86
31717;BME280;18301;51.076;17.046;2023-07-29T05:09:53;99533.53;;;19.60;90.16
31717;BME280;18301;51.076;17.046;2023-07-29T05:14:55;99537.78;;;19.98;89.84
31717;BME280;18301;51.076;17.046;2023-07-29T05:19:56;99539.41;;;20.36;88.31
31717;BME280;18301;51.076;17.046;2023-07-29T05:24:58;99544.31;;;20.68;86.96
31717;BME280;18301;51.076;17.046;2023-07-29T05:29:59;99544.94;;;20.99;85.66
31717;BME280;18301;51.076;17.046;2023-07-29T05:35:01;99547.88;;;21.32;84.74
31717;BME280;18301;51.076;17.046;2023-07-29T05:40:02;99549.31;;;21.69;83.49
31717;BME280;18301;51.076;17.046;2023-07-29T05:45:04;99545.38;;;21.98;82.78
31717;BME280;18301;51.076;17.046;2023-07-29T05:50:08;99537.19;;;22.18;82.56
31717;BME280;18301;51.076;17.046;2023-07-29T05:55:09;99553.91;;;22.57;82.09
31717;BME280;18301;51.076;17.046;2023-07-29T06:00:11;99541.59;;;22.92;80.57
31717;BME280;18301;51.076;17.046;2023-07-29T06:05:13;99555.59;;;22.91;79.13
31717;BME280;18301;51.076;17.046;2023-07-29T06:10:15;99554.34;;;23.00;79.48
31717;BME280;18301;51.076;17.046;2023-07-29T06:15:20;99555.53;;;23.31;78.05
31717;BME280;18301;51.076;17.046;2023-07-29T06:20:24;99549.84;;;23.64;76.13
31717;BME280;18301;51.076;17.046;2023-07-29T06:25:25;99556.13;;;23.91;75.34
31717;BME280;18301;51.076;17.046;2023-07-29T06:30:27;99548.97;;;24.15;72.33
31717;BME280;18301;51.076;17.046;2023-07-29T06:35:28;99559.59;;;24.11;71.17
31717;BME280;18301;51.076;17.046;2023-07-29T06:40:30;99570.66;;;24.43;71.05
31717;BME280;18301;51.076;17.046;2023-07-29T06:45:31;99565.31;;;24.48;70.10
31717;BME280;18301;51.076;17.046;2023-07-29T06:50:33;99562.50;;;24.55;70.73
31717;BME280;18301;51.076;17.046;2023-07-29T06:55:34;99551.00;;;24.58;69.79
31717;BME280;18301;51.076;17.046;2023-07-29T07:00:36;99551.28;;;24.75;69.47
31717;BME280;18301;51.076;17.046;2023-07-29T07:05:37;99541.19;;;25.06;67.29
31717;BME280;18301;51.076;17.046;2023-07-29T07:10:39;99525.59;;;25.18;67.93
31717;BME280;18301;51.076;17.046;2023-07-29T07:15:40;99545.72;;;25.25;67.63
31717;BME280;18301;51.076;17.046;2023-07-29T07:20:42;99544.84;;;25.43;66.61
31717;BME280;18301;51.076;17.046;2023-07-29T07:25:43;99539.47;;;25.48;67.00
31717;BME280;18301;51.076;17.046;2023-07-29T07:30:45;99543.41;;;25.70;66.22
31717;BME280;18301;51.076;17.046;2023-07-29T07:35:47;99551.34;;;25.85;66.65
31717;BME280;18301;51.076;17.046;2023-07-29T07:40:55;99549.41;;;25.86;66.13
31717;BME280;18301;51.076;17.046;2023-07-29T07:45:59;99542.94;;;25.73;65.54
31717;BME280;18301;51.076;17.046;2023-07-29T07:51:09;99543.34;;;25.96;65.01
31717;BME280;18301;51.076;17.046;2023-07-29T07:56:11;99531.19;;;25.97;65.60
31717;BME280;18301;51.076;17.046;2023-07-29T08:01:12;99531.00;;;26.10;65.27
31717;BME280;18301;51.076;17.046;2023-07-29T08:06:14;99533.94;;;26.38;63.61
31717;BME280;18301;51.076;17.046;2023-07-29T08:11:15;99529.81;;;26.29;64.61
31717;BME280;18301;51.076;17.046;2023-07-29T08:16:17;99523.19;;;26.49;63.73
31717;BME280;18301;51.076;17.046;2023-07-29T08:21:19;99522.34;;;26.83;62.72
31717;BME280;18301;51.076;17.046;2023-07-29T08:26:20;99502.69;;;26.97;63.22
31717;BME280;18301;51.076;17.046;2023-07-29T08:31:22;99506.22;;;27.04;60.30
31717;BME280;18301;51.076;17.046;2023-07-29T08:36:24;99505.47;;;26.97;61.83
31717;BME280;18301;51.076;17.046;2023-07-29T08:41:29;99493.19;;;27.04;60.81
31717;BME280;18301;51.076;17.046;2023-07-29T08:46:32;99486.72;;;27.51;60.02
31717;BME280;18301;51.076;17.046;2023-07-29T08:51:36;99483.75;;;27.41;59.17
31717;BME280;18301;51.076;17.046;2023-07-29T08:56:38;99478.03;;;26.95;60.66
31717;BME280;18301;51.076;17.046;2023-07-29T09:01:41;99476.03;;;26.67;61.71
31717;BME280;18301;51.076;17.046;2023-07-29T09:06:43;99487.16;;;26.25;62.74
31717;BME280;18301;51.076;17.046;2023-07-29T09:11:45;99474.44;;;26.71;61.90
31717;BME280;18301;51.076;17.046;2023-07-29T09:16:47;99473.88;;;27.33;59.93
31717;BME280;18301;51.076;17.046;2023-07-29T09:21:49;99476.81;;;27.55;60.64
31717;BME280;18301;51.076;17.046;2023-07-29T09:26:50;99475.53;;;28.03;57.33
31717;BME280;18301;51.076;17.046;2023-07-29T09:31:52;99481.25;;;28.13;58.41
31717;BME280;18301;51.076;17.046;2023-07-29T09:36:53;99470.59;;;28.05;56.12
31717;BME280;18301;51.076;17.046;2023-07-29T09:41:55;99472.09;;;27.96;57.34
31717;BME280;18301;51.076;17.046;2023-07-29T09:46:57;99463.38;;;27.75;57.15
31717;BME280;18301;51.076;17.046;2023-07-29T09:51:59;99456.03;;;27.69;57.60
31717;BME280;18301;51.076;17.046;2023-07-29T09:57:03;99448.66;;;28.20;58.07
31717;BME280;18301;51.076;17.046;2023-07-29T10:02:13;99462.38;;;28.61;56.18
31717;BME280;18301;51.076;17.046;2023-07-29T10:07:17;99457.66;;;28.28;54.65
31717;BME280;18301;51.076;17.046;2023-07-29T10:12:19;99453.19;;;27.93;55.45
31717;BME280;18301;51.076;17.046;2023-07-29T10:17:21;99451.81;;;27.79;56.45
31717;BME280;18301;51.076;17.046;2023-07-29T10:22:25;99469.13;;;27.57;56.31
31717;BME280;18301;51.076;17.046;2023-07-29T10:27:29;99458.28;;;27.84;55.06
31717;BME280;18301;51.076;17.046;2023-07-29T10:32:31;99447.91;;;28.08;54.86
31717;BME280;18301;51.076;17.046;2023-07-29T10:37:33;99437.84;;;27.45;56.31
31717;BME280;18301;51.076;17.046;2023-07-29T10:42:36;99438.97;;;27.32;57.95
31717;BME280;18301;51.076;17.046;2023-07-29T10:47:38;99432.41;;;27.79;55.49
31717;BME280;18301;51.076;17.046;2023-07-29T10:52:40;99419.22;;;28.53;55.27
31717;BME280;18301;51.076;17.046;2023-07-29T10:57:44;99410.38;;;28.73;53.43
31717;BME280;18301;51.076;17.046;2023-07-29T11:02:58;99385.63;;;28.72;52.91
31717;BME280;18301;51.076;17.046;2023-07-29T11:08:16;99399.31;;;28.39;51.94
31717;BME280;18301;51.076;17.046;2023-07-29T11:13:17;99388.13;;;28.51;53.04
31717;BME280;18301;51.076;17.046;2023-07-29T11:18:20;99392.84;;;28.17;52.27
31717;BME280;18301;51.076;17.046;2023-07-29T11:23:33;99385.03;;;27.97;54.27
31717;BME280;18301;51.076;17.046;2023-07-29T11:28:38;99385.88;;;28.14;56.11
31717;BME280;18301;51.076;17.046;2023-07-29T11:33:41;99378.56;;;28.42;52.85
31717;BME280;18301;51.076;17.046;2023-07-29T11:38:42;99362.56;;;28.49;52.31
31717;BME280;18301;51.076;17.046;2023-07-29T11:43:44;99360.47;;;28.39;52.14
31717;BME280;18301;51.076;17.046;2023-07-29T11:48:45;99357.44;;;28.41;52.07
31717;BME280;18301;51.076;17.046;2023-07-29T11:53:47;99352.56;;;28.48;52.31
31717;BME280;18301;51.076;17.046;2023-07-29T11:58:49;99362.41;;;28.22;50.65
31717;BME280;18301;51.076;17.046;2023-07-29T12:03:51;99363.88;;;27.91;51.12
31717;BME280;18301;51.076;17.046;2023-07-29T12:08:55;99359.41;;;27.90;50.98
31717;BME280;18301;51.076;17.046;2023-07-29T12:13:57;99353.94;;;28.12;49.98
31717;BME280;18301;51.076;17.046;2023-07-29T12:19:00;99357.88;;;28.33;50.13
31717;BME280;18301;51.076;17.046;2023-07-29T12:24:02;99351.31;;;28.22;48.72
31717;BME280;18301;51.076;17.046;2023-07-29T12:29:18;99336.47;;;28.11;49.29
31717;BME280;18301;51.076;17.046;2023-07-29T12:34:25;99335.47;;;28.39;49.40
31717;BME280;18301;51.076;17.046;2023-07-29T12:39:29;99323.59;;;28.61;47.91
31717;BME280;18301;51.076;17.046;2023-07-29T12:44:33;99298.66;;;28.44;48.39
31717;BME280;18301;51.076;17.046;2023-07-29T12:49:35;99314.69;;;28.59;49.40
31717;BME280;18301;51.076;17.046;2023-07-29T12:54:37;99306.22;;;28.49;48.61
31717;BME280;18301;51.076;17.046;2023-07-29T12:59:38;99294.88;;;28.33;50.30
31717;BME280;18301;51.076;17.046;2023-07-29T13:04:40;99303.19;;;28.11;49.51
31717;BME280;18301;51.076;17.046;2023-07-29T13:09:41;99318.81;;;28.00;49.27
31717;BME280;18301;51.076;17.046;2023-07-29T13:14:43;99301.50;;;27.76;49.76
31717;BME280;18301;51.076;17.046;2023-07-29T13:19:44;99299.16;;;27.68;50.97
31717;BME280;18301;51.076;17.046;2023-07-29T13:24:46;99301.16;;;28.23;50.25
31717;BME280;18301;51.076;17.046;2023-07-29T13:29:47;99295.31;;;28.64;47.76
31717;BME280;18301;51.076;17.046;2023-07-29T13:34:49;99293.97;;;28.66;48.56
31717;BME280;18301;51.076;17.046;2023-07-29T13:39:50;99293.47;;;28.70;48.24
31717;BME280;18301;51.076;17.046;2023-07-29T13:44:52;99280.09;;;28.66;48.46
31717;BME280;18301;51.076;17.046;2023-07-29T13:49:53;99288.00;;;28.80;48.52
31717;BME280;18301;51.076;17.046;2023-07-29T13:54:55;99280.31;;;28.87;47.90
31717;BME280;18301;51.076;17.046;2023-07-29T13:59:56;99267.38;;;28.98;47.88
31717;BME280;18301;51.076;17.046;2023-07-29T14:04:58;99266.44;;;28.87;47.64
31717;BME280;18301;51.076;17.046;2023-07-29T14:09:59;99259.81;;;28.93;47.84
31717;BME280;18301;51.076;17.046;2023-07-29T14:15:04;99255.88;;;28.01;48.66
31717;BME280;18301;51.076;17.046;2023-07-29T14:20:06;99261.78;;;27.54;50.42
31717;BME280;18301;51.076;17.046;2023-07-29T14:25:08;99249.59;;;27.55;51.01
31717;BME280;18301;51.076;17.046;2023-07-29T14:30:10;99231.34;;;27.76;51.34
31717;BME280;18301;51.076;17.046;2023-07-29T14:35:12;99225.59;;;27.77;51.18
31717;BME280;18301;51.076;17.046;2023-07-29T14:40:13;99220.53;;;27.74;51.16
31717;BME280;18301;51.076;17.046;2023-07-29T14:45:15;99227.28;;;27.79;51.42
31717;BME280;18301;51.076;17.046;2023-07-29T14:50:17;99223.06;;;27.59;51.89
31717;BME280;18301;51.076;17.046;2023-07-29T14:55:18;99214.03;;;27.47;52.92
31717;BME280;18301;51.076;17.046;2023-07-29T15:00:20;99212.31;;;27.46;51.39
31717;BME280;18301;51.076;17.046;2023-07-29T15:05:22;99214.19;;;27.23;51.39
31717;BME280;18301;51.076;17.046;2023-07-29T15:10:23;99214.28;;;27.00;52.26
31717;BME280;18301;51.076;17.046;2023-07-29T15:15:24;99218.97;;;26.99;53.06
31717;BME280;18301;51.076;17.046;2023-07-29T15:20:26;99220.69;;;27.00;53.05
31717;BME280;18301;51.076;17.046;2023-07-29T15:25:29;99220.69;;;27.00;53.55
31717;BME280;18301;51.076;17.046;2023-07-29T15:30:30;99225.56;;;27.10;53.72
31717;BME280;18301;51.076;17.046;2023-07-29T15:35:39;99227.13;;;26.89;54.37
31717;BME280;18301;51.076;17.046;2023-07-29T15:40:41;99233.09;;;26.98;54.07
31717;BME280;18301;51.076;17.046;2023-07-29T15:45:42;99232.03;;;26.87;54.17
31717;BME280;18301;51.076;17.046;2023-07-29T15:50:46;99227.28;;;26.82;54.19
31717;BME280;18301;51.076;17.046;2023-07-29T15:55:47;99231.59;;;26.78;54.25
31717;BME280;18301;51.076;17.046;2023-07-29T16:00:49;99244.88;;;26.76;54.30
31717;BME280;18301;51.076;17.046;2023-07-29T16:05:50;99236.59;;;26.65;54.44
31717;BME280;18301;51.076;17.046;2023-07-29T16:10:52;99240.59;;;26.57;55.43
31717;BME280;18301;51.076;17.046;2023-07-29T16:15:53;99239.38;;;26.65;55.71
31717;BME280;18301;51.076;17.046;2023-07-29T16:20:55;99248.78;;;26.63;55.38
31717;BME280;18301;51.076;17.046;2023-07-29T16:26:02;99245.41;;;26.61;55.08
31717;BME280;18301;51.076;17.046;2023-07-29T16:31:04;99235.47;;;26.49;55.30
31717;BME280;18301;51.076;17.046;2023-07-29T16:36:06;99248.13;;;26.33;55.59
31717;BME280;18301;51.076;17.046;2023-07-29T16:41:08;99239.72;;;26.16;55.31
31717;BME280;18301;51.076;17.046;2023-07-29T16:46:27;99236.28;;;25.85;54.59
31717;BME280;18301;51.076;17.046;2023-07-29T16:51:28;99239.28;;;25.84;55.32
31717;BME280;18301;51.076;17.046;2023-07-29T16:56:30;99237.84;;;25.81;54.69
31717;BME280;18301;51.076;17.046;2023-07-29T17:01:33;99240.59;;;25.81;54.85
31717;BME280;18301;51.076;17.046;2023-07-29T17:06:35;99247.81;;;25.82;54.85
31717;BME280;18301;51.076;17.046;2023-07-29T17:11:37;99235.31;;;25.68;55.72
31717;BME280;18301;51.076;17.046;2023-07-29T17:16:38;99226.41;;;25.66;55.44
31717;BME280;18301;51.076;17.046;2023-07-29T17:21:40;99227.38;;;25.60;55.60
31717;BME280;18301;51.076;17.046;2023-07-29T17:26:42;99228.19;;;25.48;55.95
31717;BME280;18301;51.076;17.046;2023-07-29T17:31:43;99220.84;;;25.42;56.86
31717;BME280;18301;51.076;17.046;2023-07-29T17:36:46;99242.00;;;25.48;56.67
31717;BME280;18301;51.076;17.046;2023-07-29T17:41:48;99242.75;;;25.56;56.00
31717;BME280;18301;51.076;17.046;2023-07-29T17:46:49;99231.06;;;25.42;56.83
31717;BME280;18301;51.076;17.046;2023-07-29T17:51:51;99246.44;;;25.38;56.93
31717;BME280;18301;51.076;17.046;2023-07-29T17:56:53;99252.47;;;25.04;58.28
31717;BME280;18301;51.076;17.046;2023-07-29T18:01:55;99266.09;;;24.99;58.68
31717;BME280;18301;51.076;17.046;2023-07-29T18:06:56;99273.69;;;25.04;57.47
31717;BME280;18301;51.076;17.046;2023-07-29T18:11:59;99281.00;;;24.98;58.55
31717;BME280;18301;51.076;17.046;2023-07-29T18:17:02;99294.38;;;24.83;58.76
31717;BME280;18301;51.076;17.046;2023-07-29T18:22:04;99301.13;;;24.69;59.10
31717;BME280;18301;51.076;17.046;2023-07-29T18:27:06;99302.41;;;24.54;59.17
31717;BME280;18301;51.076;17.046;2023-07-29T18:32:09;99306.28;;;24.47;59.74
31717;BME280;18301;51.076;17.046;2023-07-29T18:37:10;99313.53;;;24.41;59.90
31717;BME280;18301;51.076;17.046;2023-07-29T18:42:12;99306.19;;;24.35;60.34
31717;BME280;18301;51.076;17.046;2023-07-29T18:47:14;99302.19;;;24.31;59.51
31717;BME280;18301;51.076;17.046;2023-07-29T18:52:16;99303.34;;;24.05;60.13
31717;BME280;18301;51.076;17.046;2023-07-29T18:57:17;99314.28;;;23.93;60.05
31717;BME280;18301;51.076;17.046;2023-07-29T19:02:19;99319.22;;;23.84;61.23
31717;BME280;18301;51.076;17.046;2023-07-29T19:07:20;99302.91;;;23.83;60.84
31717;BME280;18301;51.076;17.046;2023-07-29T19:12:23;99315.91;;;23.76;60.69
31717;BME280;18301;51.076;17.046;2023-07-29T19:17:24;99332.22;;;23.77;61.10
31717;BME280;18301;51.076;17.046;2023-07-29T19:22:26;99335.00;;;23.71;62.39
31717;BME280;18301;51.076;17.046;2023-07-29T19:27:27;99342.22;;;23.72;62.75
31717;BME280;18301;51.076;17.046;2023-07-29T19:32:29;99351.59;;;23.89;61.91
31717;BME280;18301;51.076;17.046;2023-07-29T19:37:30;99363.81;;;23.75;63.29
31717;BME280;18301;51.076;17.046;2023-07-29T19:42:32;99362.63;;;23.57;64.71
31717;BME280;18301;51.076;17.046;2023-07-29T19:47:33;99377.47;;;23.56;65.61
31717;BME280;18301;51.076;17.046;2023-07-29T19:52:35;99387.53;;;23.76;64.65
31717;BME280;18301;51.076;17.046;2023-07-29T19:57:36;99386.06;;;23.66;66.56
31717;BME280;18301;51.076;17.046;2023-07-29T20:02:38;99370.38;;;23.42;68.60
31717;BME280;18301;51.076;17.046;2023-07-29T20:07:39;99374.44;;;23.33;67.34
31717;BME280;18301;51.076;17.046;2023-07-29T20:12:41;99371.78;;;23.19;69.31
31717;BME280;18301;51.076;17.046;2023-07-29T20:17:43;99378.59;;;23.10;69.68
31717;BME280;18301;51.076;17.046;2023-07-29T20:22:47;99390.94;;;23.01;70.32
31717;BME280;18301;51.076;17.046;2023-07-29T20:27:49;99411.88;;;23.02;71.82
31717;BME280;18301;51.076;17.046;2023-07-29T20:32:50;99415.41;;;23.16;70.46
31717;BME280;18301;51.076;17.046;2023-07-29T20:37:53;99430.00;;;21.92;75.49
31717;BME280;18301;51.076;17.046;2023-07-29T20:42:54;99422.81;;;21.77;74.45
31717;BME280;18301;51.076;17.046;2023-07-29T20:47:56;99432.09;;;21.63;78.11
31717;BME280;18301;51.076;17.046;2023-07-29T20:52:57;99418.47;;;21.28;78.27
31717;BME280;18301;51.076;17.046;2023-07-29T20:57:59;99427.69;;;21.14;83.48
31717;BME280;18301;51.076;17.046;2023-07-29T21:03:00;99413.31;;;21.12;82.97
31717;BME280;18301;51.076;17.046;2023-07-29T21:08:02;99432.94;;;21.09;83.56
31717;BME280;18301;51.076;17.046;2023-07-29T21:13:04;99438.38;;;20.96;85.53
31717;BME280;18301;51.076;17.046;2023-07-29T21:18:05;99439.72;;;20.72;86.23
31717;BME280;18301;51.076;17.046;2023-07-29T21:23:07;99433.00;;;20.74;90.63
31717;BME280;18301;51.076;17.046;2023-07-29T21:28:08;99474.75;;;20.69;87.53
31717;BME280;18301;51.076;17.046;2023-07-29T21:33:11;99461.19;;;20.61;88.72
31717;BME280;18301;51.076;17.046;2023-07-29T21:38:12;99433.59;;;20.63;87.71
31717;BME280;18301;51.076;17.046;2023-07-29T21:43:30;99425.16;;;20.36;89.01
31717;BME280;18301;51.076;17.046;2023-07-29T21:48:31;99441.50;;;20.23;88.17
31717;BME280;18301;51.076;17.046;2023-07-29T21:53:33;99445.06;;;20.17;91.92
31717;BME280;18301;51.076;17.046;2023-07-29T21:58:34;99443.63;;;20.28;89.71
31717;BME280;18301;51.076;17.046;2023-07-29T22:03:36;99460.44;;;20.18;89.15
31717;BME280;18301;51.076;17.046;2023-07-29T22:08:37;99460.81;;;20.15;89.63
31717;BME280;18301;51.076;17.046;2023-07-29T22:13:39;99466.66;;;20.05;94.98
31717;BME280;18301;51.076;17.046;2023-07-29T22:18:40;99464.09;;;20.04;91.21
31717;BME280;18301;51.076;17.046;2023-07-29T22:23:42;99464.25;;;19.95;90.06
31717;BME280;18301;51.076;17.046;2023-07-29T22:29:00;99459.28;;;19.84;89.91
31717;BME280;18301;51.076;17.046;2023-07-29T22:34:02;99463.88;;;19.77;88.75
31717;BME280;18301;51.076;17.046;2023-07-29T22:39:04;99464.16;;;19.67;89.98
31717;BME280;18301;51.076;17.046;2023-07-29T22:44:05;99466.81;;;19.61;90.41
31717;BME280;18301;51.076;17.046;2023-07-29T22:49:07;99473.19;;;19.46;90.82
31717;BME280;18301;51.076;17.046;2023-07-29T22:54:08;99466.09;;;19.52;89.98
31717;BME280;18301;51.076;17.046;2023-07-29T22:59:10;99468.50;;;19.40;90.15
31717;BME280;18301;51.076;17.046;2023-07-29T23:04:11;99465.75;;;19.40;90.43
31717;BME280;18301;51.076;17.046;2023-07-29T23:09:13;99463.41;;;19.37;90.89
31717;BME280;18301;51.076;17.046;2023-07-29T23:14:15;99465.47;;;19.35;90.65
31717;BME280;18301;51.076;17.046;2023-07-29T23:19:16;99460.78;;;19.29;90.11
31717;BME280;18301;51.076;17.046;2023-07-29T23:24:18;99467.69;;;19.25;90.47
31717;BME280;18301;51.076;17.046;2023-07-29T23:29:19;99467.47;;;19.26;91.03
31717;BME280;18301;51.076;17.046;2023-07-29T23:34:21;99461.84;;;19.28;91.46
31717;BME280;18301;51.076;17.046;2023-07-29T23:39:22;99468.25;;;19.20;90.54
31717;BME280;18301;51.076;17.046;2023-07-29T23:44:24;99466.19;;;19.22;90.70
31717;BME280;18301;51.076;17.046;2023-07-29T23:49:25;99476.91;;;19.24;90.18
31717;BME280;18301;51.076;17.046;2023-07-29T23:54:27;99478.44;;;19.12;90.00
31717;BME280;18301;51.076;17.046;2023-07-29T23:59:28;99489.50;;;19.03;90.58
